Time;durP1;ratioP1;P1;durP2;ratioP2;P2;SDS_P1;SDS_P2;PMS_P1;PMS_P2;Temp;Humidity;BMP_temperature;BMP_pressure;BME280_temperature;BME280_humidity;BME280_pressure;Samples;Min_cycle;Max_cycle;Signal;HPM_P1;HPM_P2
2024/01/14 00:02:17;;;;;;;13.60;8.63;;;6.40;79.70;;;;;;4720881;30;20033;-88
2024/01/14 00:04:44;;;;;;;13.13;7.97;;;6.40;79.70;;;;;;4732635;30;20024;-88
2024/01/14 00:07:10;;;;;;;11.77;8.40;;;6.40;79.70;;;;;;4737309;30;20032;-89
2024/01/14 00:09:36;;;;;;;11.70;7.97;;;6.40;79.70;;;;;;4721292;30;20040;-89
2024/01/14 00:12:02;;;;;;;12.77;8.70;;;6.40;79.70;;;;;;4746041;30;20040;-87
2024/01/14 00:14:28;;;;;;;13.05;8.23;;;6.40;79.70;;;;;;4734690;30;20498;-88
2024/01/14 00:16:54;;;;;;;12.55;8.40;;;6.40;79.70;;;;;;4723184;30;20044;-88
2024/01/14 00:19:20;;;;;;;12.18;8.27;;;6.40;79.70;;;;;;4720088;30;20036;-88
2024/01/14 00:21:45;;;;;;;11.40;7.68;;;6.40;79.70;;;;;;4733024;30;20028;-88
2024/01/14 00:24:11;;;;;;;13.02;8.35;;;6.40;79.70;;;;;;4750039;30;20551;-88
2024/01/14 00:26:37;;;;;;;11.35;7.75;;;6.40;79.70;;;;;;4723333;30;20092;-88
2024/01/14 00:29:03;;;;;;;11.48;7.55;;;6.40;79.70;;;;;;4734333;30;20082;-88
2024/01/14 00:31:29;;;;;;;11.98;8.07;;;6.40;79.70;;;;;;4719579;30;20036;-89
2024/01/14 00:33:55;;;;;;;11.63;7.43;;;6.40;79.70;;;;;;4720276;30;20494;-88
2024/01/14 00:36:20;;;;;;;12.43;8.40;;;6.40;79.70;;;;;;4721751;30;20471;-88
2024/01/14 00:38:46;;;;;;;11.98;8.02;;;6.40;79.70;;;;;;4732830;30;20032;-88
2024/01/14 00:41:12;;;;;;;11.30;7.85;;;6.40;79.70;;;;;;4718101;30;20036;-87
2024/01/14 00:43:38;;;;;;;12.07;8.18;;;6.40;79.80;;;;;;4734478;30;20623;-88
2024/01/14 00:46:04;;;;;;;12.55;8.70;;;6.40;79.70;;;;;;4720668;30;20024;-89
2024/01/14 00:48:30;;;;;;;12.13;8.70;;;6.40;79.80;;;;;;4728749;30;20040;-89
2024/01/14 00:50:57;;;;;;;11.68;8.07;;;6.40;79.70;;;;;;4719145;30;20035;-89
2024/01/14 00:53:23;;;;;;;11.70;7.63;;;6.40;79.80;;;;;;4722529;30;20490;-89
2024/01/14 00:55:49;;;;;;;12.35;8.48;;;6.40;79.80;;;;;;4732929;30;20479;-88
2024/01/14 00:58:15;;;;;;;10.85;7.28;;;6.40;79.70;;;;;;4722504;30;20044;-88
2024/01/14 01:00:41;;;;;;;12.98;8.57;;;6.40;79.70;;;;;;4715436;30;20313;-89
2024/01/14 01:03:07;;;;;;;11.38;7.43;;;6.40;79.70;;;;;;4736242;30;20043;-89
2024/01/14 01:05:32;;;;;;;12.57;8.45;;;6.40;79.70;;;;;;4717004;30;20029;-88
2024/01/14 01:07:58;;;;;;;12.02;8.40;;;6.40;79.70;;;;;;4720440;30;20118;-89
2024/01/14 01:10:24;;;;;;;10.80;7.43;;;6.40;79.70;;;;;;4748549;30;20071;-88
2024/01/14 01:12:50;;;;;;;12.52;8.05;;;6.40;79.80;;;;;;4735175;30;20410;-88
2024/01/14 01:15:15;;;;;;;11.77;8.05;;;6.40;79.70;;;;;;4719456;30;20024;-88
2024/01/14 01:17:41;;;;;;;12.75;8.52;;;6.40;79.80;;;;;;4717723;30;20033;-88
2024/01/14 01:20:08;;;;;;;12.43;8.15;;;6.40;79.80;;;;;;4749766;30;20451;-88
2024/01/14 01:22:34;;;;;;;12.48;8.20;;;6.40;79.80;;;;;;4731037;30;20056;-89
2024/01/14 01:25:00;;;;;;;11.60;7.57;;;6.40;79.80;;;;;;4734246;30;20079;-88
2024/01/14 01:27:27;;;;;;;11.30;7.35;;;6.40;79.80;;;;;;4727615;30;20115;-88
2024/01/14 01:29:53;;;;;;;11.18;8.25;;;6.40;79.80;;;;;;4720071;30;20040;-89
2024/01/14 01:32:19;;;;;;;12.07;8.50;;;6.40;79.80;;;;;;4732091;30;20043;-89
2024/01/14 01:34:45;;;;;;;12.18;8.57;;;6.40;79.80;;;;;;4744089;30;20048;-89
2024/01/14 01:37:11;;;;;;;11.23;7.32;;;6.40;79.80;;;;;;4732134;30;20106;-89
2024/01/14 01:39:37;;;;;;;12.63;8.38;;;6.40;79.80;;;;;;4719199;30;20296;-89
2024/01/14 01:42:03;;;;;;;12.40;7.88;;;6.40;79.80;;;;;;4734028;30;20032;-88
2024/01/14 01:44:29;;;;;;;12.88;8.55;;;6.40;79.80;;;;;;4732554;30;20047;-88
2024/01/14 01:46:56;;;;;;;13.93;8.50;;;6.40;79.80;;;;;;4718663;30;20036;-88
2024/01/14 01:49:22;;;;;;;13.55;8.65;;;6.40;80.50;;;;;;4731754;30;20043;-88
2024/01/14 01:51:50;;;;;;;12.75;8.27;;;6.40;79.80;;;;;;4734734;30;20028;-90
2024/01/14 01:54:22;;;;;;;12.20;8.30;;;6.40;79.80;;;;;;4719912;30;20028;-89
2024/01/14 01:56:51;;;;;;;13.75;8.60;;;6.40;79.80;;;;;;4716483;30;20117;-88
2024/01/14 01:59:17;;;;;;;14.07;8.77;;;6.40;79.80;;;;;;4717668;30;20039;-89
2024/01/14 02:01:46;;;;;;;12.18;8.98;;;6.40;79.80;;;;;;4725942;30;20047;-88
2024/01/14 02:04:14;;;;;;;11.85;7.70;;;6.40;79.80;;;;;;4735367;30;20032;-88
2024/01/14 02:06:40;;;;;;;12.27;7.80;;;6.40;79.80;;;;;;4735834;30;20097;-89
2024/01/14 02:09:08;;;;;;;13.77;9.18;;;6.40;79.80;;;;;;4718102;30;20562;-89
2024/01/14 02:11:35;;;;;;;12.85;8.77;;;6.40;79.80;;;;;;4736067;30;20433;-89
2024/01/14 02:14:01;;;;;;;13.80;8.68;;;6.40;79.80;;;;;;4718953;30;20036;-88
2024/01/14 02:16:27;;;;;;;14.63;8.98;;;6.40;79.80;;;;;;4717443;30;20029;-89
2024/01/14 02:18:53;;;;;;;14.23;9.27;;;6.40;79.80;;;;;;4720750;30;20406;-89
2024/01/14 02:21:49;;;;;;;13.50;8.85;;;6.40;79.80;;;;;;4733705;30;20107;-89
2024/01/14 02:24:34;;;;;;;13.82;8.27;;;6.40;79.90;;;;;;4734590;30;20194;-89
2024/01/14 02:27:00;;;;;;;13.60;8.68;;;6.40;79.90;;;;;;4737536;30;20028;-89
2024/01/14 02:29:28;;;;;;;12.27;8.88;;;6.40;79.80;;;;;;4722201;30;20052;-89
2024/01/14 02:31:54;;;;;;;12.93;8.30;;;6.40;79.80;;;;;;4734980;30;20044;-89
2024/01/14 02:34:20;;;;;;;13.00;8.38;;;6.40;79.80;;;;;;4748181;30;20057;-89
2024/01/14 02:36:46;;;;;;;13.20;9.40;;;6.40;79.80;;;;;;4733827;30;20028;-89
2024/01/14 02:39:12;;;;;;;13.50;8.90;;;6.40;79.80;;;;;;4723067;30;20122;-88
2024/01/14 02:41:38;;;;;;;13.15;8.85;;;6.40;79.90;;;;;;4721256;30;20032;-88
2024/01/14 02:44:04;;;;;;;13.27;8.60;;;6.40;79.90;;;;;;4735964;30;20135;-89
2024/01/14 02:46:29;;;;;;;12.98;8.90;;;6.40;79.80;;;;;;4747139;30;20048;-89
2024/01/14 02:48:55;;;;;;;13.70;8.85;;;6.40;79.80;;;;;;4718127;30;20035;-88
2024/01/14 02:51:22;;;;;;;13.75;9.30;;;6.40;79.80;;;;;;4739761;30;20052;-89
2024/01/14 02:53:48;;;;;;;13.70;8.95;;;6.40;79.90;;;;;;4736154;30;20028;-88
2024/01/14 02:56:14;;;;;;;12.70;8.50;;;6.40;79.90;;;;;;4719285;30;20257;-88
2024/01/14 02:58:39;;;;;;;14.10;9.10;;;6.40;79.90;;;;;;4719666;30;20033;-88
2024/01/14 03:01:05;;;;;;;14.90;9.52;;;6.40;79.90;;;;;;4732834;30;20036;-90
2024/01/14 03:03:31;;;;;;;13.32;8.60;;;6.40;79.90;;;;;;4749815;30;20028;-89
2024/01/14 03:05:57;;;;;;;15.27;9.82;;;6.40;79.90;;;;;;4752803;30;20056;-89
2024/01/14 03:08:23;;;;;;;12.90;8.65;;;6.40;79.90;;;;;;4741330;30;20570;-89
2024/01/14 03:10:49;;;;;;;14.50;9.35;;;6.40;79.90;;;;;;4722401;30;20042;-89
2024/01/14 03:13:16;;;;;;;13.20;8.90;;;6.40;79.90;;;;;;4751277;30;20504;-88
2024/01/14 03:15:45;;;;;;;14.35;8.85;;;6.40;79.90;;;;;;4736041;30;20044;-88
2024/01/14 03:18:15;;;;;;;13.55;9.23;;;6.40;79.90;;;;;;4721080;30;20036;-89
2024/01/14 03:20:42;;;;;;;14.13;9.23;;;6.40;80.00;;;;;;4731478;30;20566;-88
2024/01/14 03:23:08;;;;;;;14.75;8.85;;;6.40;79.90;;;;;;4720847;30;20497;-88
2024/01/14 03:25:34;;;;;;;14.88;10.02;;;6.40;79.90;;;;;;4748794;30;20043;-87
2024/01/14 03:27:59;;;;;;;14.30;9.35;;;6.40;79.90;;;;;;4722695;30;20020;-87
2024/01/14 03:30:25;;;;;;;14.10;9.02;;;6.40;80.00;;;;;;4736271;30;20175;-88
2024/01/14 03:32:51;;;;;;;16.67;9.63;;;6.40;80.00;;;;;;4731500;30;20079;-88
2024/01/14 03:35:17;;;;;;;14.23;9.55;;;6.40;80.00;;;;;;4729494;30;20509;-89
2024/01/14 03:37:43;;;;;;;14.85;9.75;;;6.40;80.00;;;;;;4721886;30;20062;-88
2024/01/14 03:40:10;;;;;;;15.25;10.38;;;6.40;80.00;;;;;;4735449;30;20090;-89
2024/01/14 03:42:35;;;;;;;16.23;9.68;;;6.40;80.00;;;;;;4733598;30;20040;-88
2024/01/14 03:45:01;;;;;;;15.02;10.38;;;6.30;79.90;;;;;;4734454;30;20489;-88
2024/01/14 03:47:27;;;;;;;14.50;10.70;;;6.40;80.00;;;;;;4736699;30;20111;-88
2024/01/14 03:49:52;;;;;;;15.18;9.25;;;6.40;80.00;;;;;;4717893;30;20039;-88
2024/01/14 03:52:18;;;;;;;15.05;10.10;;;6.40;80.00;;;;;;4727698;30;20039;-89
2024/01/14 03:54:44;;;;;;;14.35;10.05;;;6.40;80.00;;;;;;4729408;30;20044;-88
2024/01/14 03:57:10;;;;;;;15.80;10.27;;;6.40;80.00;;;;;;4749948;30;20390;-88
2024/01/14 03:59:35;;;;;;;16.10;10.80;;;6.40;80.10;;;;;;4746176;30;20478;-88
2024/01/14 04:02:01;;;;;;;14.40;10.27;;;6.30;80.00;;;;;;4736741;30;20044;-88
2024/01/14 04:04:27;;;;;;;13.85;9.60;;;6.40;80.00;;;;;;4719326;30;20553;-88
2024/01/14 04:06:53;;;;;;;14.30;9.68;;;6.40;80.10;;;;;;4750651;30;20114;-88
2024/01/14 04:09:19;;;;;;;15.98;10.38;;;6.30;80.00;;;;;;4717105;30;20032;-89
2024/01/14 04:11:45;;;;;;;14.88;9.65;;;6.30;80.00;;;;;;4717108;30;20078;-89
2024/01/14 04:14:11;;;;;;;15.27;10.00;;;6.30;80.00;;;;;;4723500;30;20481;-88
2024/01/14 04:16:38;;;;;;;14.10;9.57;;;6.30;80.00;;;;;;4732316;30;20116;-89
2024/01/14 04:19:04;;;;;;;15.55;10.50;;;6.40;80.10;;;;;;4724115;30;20036;-89
2024/01/14 04:21:30;;;;;;;16.02;10.20;;;6.30;80.60;;;;;;4733946;30;20048;-88
2024/01/14 04:23:55;;;;;;;15.63;10.27;;;6.30;80.00;;;;;;4723292;30;20091;-89
2024/01/14 04:26:22;;;;;;;16.05;10.82;;;6.40;80.10;;;;;;4732366;30;20033;-89
2024/01/14 04:28:49;;;;;;;13.88;9.63;;;6.30;80.00;;;;;;4745395;30;20043;-89
2024/01/14 04:31:15;;;;;;;14.73;9.90;;;6.30;80.10;;;;;;4732604;30;20093;-88
2024/01/14 04:33:40;;;;;;;13.68;9.73;;;6.30;80.10;;;;;;4733508;30;20468;-90
2024/01/14 04:36:06;;;;;;;15.30;10.18;;;6.30;80.00;;;;;;4715997;30;20131;-89
2024/01/14 04:38:32;;;;;;;14.75;9.68;;;6.30;80.10;;;;;;4718332;30;20055;-88
2024/01/14 04:40:58;;;;;;;15.85;10.95;;;6.30;80.10;;;;;;4720290;30;20493;-89
2024/01/14 04:43:24;;;;;;;14.73;9.85;;;6.30;80.10;;;;;;4733623;30;20051;-89
2024/01/14 04:45:49;;;;;;;16.65;11.05;;;6.30;80.10;;;;;;4731140;30;20033;-89
2024/01/14 04:48:15;;;;;;;14.88;10.15;;;6.30;80.10;;;;;;4736299;30;20038;-89
2024/01/14 04:50:41;;;;;;;13.23;9.68;;;6.30;80.80;;;;;;4720936;30;20036;-89
2024/01/14 04:53:07;;;;;;;14.35;9.65;;;6.30;80.10;;;;;;4727838;30;20040;-88
2024/01/14 04:55:32;;;;;;;14.65;10.45;;;6.30;80.20;;;;;;4735530;30;20070;-89
2024/01/14 04:57:59;;;;;;;15.52;10.20;;;6.30;80.20;;;;;;4723452;30;20051;-87
2024/01/14 05:00:25;;;;;;;17.20;11.55;;;6.30;80.20;;;;;;4728665;30;20047;-89
2024/01/14 05:02:51;;;;;;;14.23;9.60;;;6.30;80.20;;;;;;4746698;30;20039;-88
2024/01/14 05:05:16;;;;;;;15.85;10.40;;;6.30;80.20;;;;;;4735962;30;20413;-88
2024/01/14 05:07:42;;;;;;;16.92;11.00;;;6.30;80.20;;;;;;4733947;30;20029;-89
2024/01/14 05:10:08;;;;;;;15.88;10.20;;;6.30;80.20;;;;;;4751558;30;20595;-89
2024/01/14 05:12:34;;;;;;;15.98;10.43;;;6.30;80.30;;;;;;4745910;30;20128;-88
2024/01/14 05:15:00;;;;;;;15.40;10.85;;;6.30;80.30;;;;;;4738580;30;20123;-89
2024/01/14 05:17:26;;;;;;;15.77;9.55;;;6.30;80.30;;;;;;4737391;30;20553;-89
2024/01/14 05:19:52;;;;;;;14.90;9.98;;;6.30;80.90;;;;;;4749363;30;20036;-89
2024/01/14 05:22:18;;;;;;;16.92;10.27;;;6.30;80.30;;;;;;4745231;30;20036;-88
2024/01/14 05:24:44;;;;;;;15.00;10.23;;;6.30;80.30;;;;;;4729634;30;20025;-89
2024/01/14 05:27:14;;;;;;;15.57;11.00;;;6.20;80.30;;;;;;4735314;30;20032;-88
2024/01/14 05:29:41;;;;;;;18.00;11.52;;;6.20;80.20;;;;;;4733984;30;20044;-89
2024/01/14 05:32:14;;;;;;;14.90;9.95;;;6.30;80.30;;;;;;4714855;30;20069;-89
2024/01/14 05:34:40;;;;;;;15.35;10.02;;;6.20;80.20;;;;;;4741163;30;20067;-90
2024/01/14 05:37:07;;;;;;;14.65;10.13;;;6.20;80.20;;;;;;4719291;30;20119;-91
2024/01/14 05:39:33;;;;;;;15.38;11.18;;;6.30;80.30;;;;;;4733546;30;20470;-89
2024/01/14 05:41:59;;;;;;;14.35;10.15;;;6.20;80.20;;;;;;4720539;30;20032;-89
2024/01/14 05:44:25;;;;;;;15.73;10.60;;;6.20;80.20;;;;;;4718290;30;20028;-90
2024/01/14 05:46:52;;;;;;;16.85;10.70;;;6.20;80.30;;;;;;4728854;30;20040;-90
2024/01/14 05:49:18;;;;;;;15.35;10.43;;;6.20;80.30;;;;;;4733058;30;20044;-90
2024/01/14 05:51:44;;;;;;;16.77;11.10;;;6.20;80.30;;;;;;4736376;30;20039;-90
2024/01/14 05:54:10;;;;;;;14.35;9.98;;;6.20;80.30;;;;;;4718271;30;20127;-90
2024/01/14 05:56:35;;;;;;;15.25;9.63;;;6.20;80.30;;;;;;4731258;30;20044;-89
2024/01/14 05:59:01;;;;;;;16.10;10.18;;;6.20;80.30;;;;;;4715241;30;20048;-90
2024/01/14 06:01:28;;;;;;;16.98;10.65;;;6.20;80.30;;;;;;4720454;30;20040;-90
2024/01/14 06:03:55;;;;;;;15.38;10.15;;;6.20;80.30;;;;;;4732886;30;20028;-90
2024/01/14 06:06:21;;;;;;;16.05;10.15;;;6.20;80.30;;;;;;4744157;30;20121;-89
2024/01/14 06:08:46;;;;;;;15.40;10.27;;;6.20;80.30;;;;;;4732594;30;20021;-89
2024/01/14 06:11:13;;;;;;;13.95;9.63;;;6.20;80.30;;;;;;4717019;30;20082;-89
2024/01/14 06:13:39;;;;;;;15.05;9.93;;;6.20;80.30;;;;;;4733805;30;20123;-90
2024/01/14 06:16:05;;;;;;;13.68;9.55;;;6.20;80.30;;;;;;4734530;30;20035;-89
2024/01/14 06:18:31;;;;;;;14.43;9.27;;;6.20;80.30;;;;;;4719841;30;20037;-90
2024/01/14 06:20:59;;;;;;;13.43;9.23;;;6.20;80.30;;;;;;4743253;30;20448;-89
2024/01/14 06:23:25;;;;;;;15.30;10.20;;;6.20;80.30;;;;;;4727929;30;20054;-88
2024/01/14 06:25:51;;;;;;;15.27;9.68;;;6.20;80.40;;;;;;4733865;30;20032;-89
2024/01/14 06:28:17;;;;;;;14.98;10.82;;;6.20;80.40;;;;;;4737189;30;20028;-89
2024/01/14 06:30:43;;;;;;;13.55;9.05;;;6.20;80.40;;;;;;4731782;30;20060;-90
2024/01/14 06:33:11;;;;;;;15.18;10.10;;;6.20;80.40;;;;;;4736170;30;20111;-90
2024/01/14 06:35:37;;;;;;;14.93;9.68;;;6.20;80.40;;;;;;4716440;30;20040;-89
2024/01/14 06:38:03;;;;;;;15.23;10.02;;;6.10;80.30;;;;;;4733262;30;20160;-89
2024/01/14 06:40:29;;;;;;;14.77;8.98;;;6.10;80.30;;;;;;4733528;30;20067;-89
2024/01/14 06:42:55;;;;;;;14.10;9.38;;;6.20;80.40;;;;;;4737478;30;20051;-89
2024/01/14 06:45:21;;;;;;;13.45;8.70;;;6.20;80.40;;;;;;4713534;30;20033;-89
2024/01/14 06:47:47;;;;;;;14.38;9.40;;;6.10;80.40;;;;;;4729801;30;20040;-90
2024/01/14 06:50:13;;;;;;;13.90;9.30;;;6.10;80.40;;;;;;4723422;30;20059;-89
2024/01/14 06:52:39;;;;;;;13.85;9.55;;;6.10;80.40;;;;;;4732950;30;20032;-88
2024/01/14 06:55:05;;;;;;;14.95;9.80;;;6.10;80.40;;;;;;4729456;30;20037;-89
2024/01/14 06:57:31;;;;;;;14.48;9.80;;;6.10;80.50;;;;;;4729804;30;20039;-87
2024/01/14 06:59:59;;;;;;;15.43;10.27;;;6.10;80.50;;;;;;4719299;30;20101;-89
2024/01/14 07:02:26;;;;;;;14.70;9.48;;;6.10;80.40;;;;;;4717641;30;20025;-89
2024/01/14 07:04:52;;;;;;;16.25;10.20;;;6.10;80.40;;;;;;4720360;30;20094;-89
2024/01/14 07:07:18;;;;;;;14.88;10.10;;;6.10;81.10;;;;;;4726052;30;20040;-90
2024/01/14 07:09:44;;;;;;;14.75;9.95;;;6.10;80.50;;;;;;4727719;30;20035;-89
2024/01/14 07:12:10;;;;;;;14.55;9.75;;;6.10;80.50;;;;;;4745755;30;20035;-90
2024/01/14 07:14:35;;;;;;;13.90;9.77;;;6.10;80.50;;;;;;4734589;30;20105;-89
2024/01/14 07:17:01;;;;;;;14.65;9.02;;;6.10;80.50;;;;;;4738344;30;20057;-89
2024/01/14 07:19:27;;;;;;;15.52;9.98;;;6.10;80.50;;;;;;4736168;30;20036;-89
2024/01/14 07:21:53;;;;;;;14.85;9.93;;;6.10;80.50;;;;;;4739308;30;20086;-88
2024/01/14 07:24:19;;;;;;;13.80;9.55;;;6.10;80.50;;;;;;4721483;30;20024;-89
2024/01/14 07:26:45;;;;;;;15.30;10.23;;;6.10;80.50;;;;;;4737714;30;20549;-89
2024/01/14 07:29:11;;;;;;;15.52;10.20;;;6.10;80.50;;;;;;4733404;30;20036;-89
2024/01/14 07:31:36;;;;;;;13.90;9.32;;;6.10;80.50;;;;;;4751130;30;20032;-89
2024/01/14 07:34:02;;;;;;;15.18;10.32;;;6.10;80.50;;;;;;4737161;30;20048;-89
2024/01/14 07:36:28;;;;;;;15.27;10.50;;;6.10;80.50;;;;;;4717175;30;20055;-88
2024/01/14 07:38:54;;;;;;;16.27;10.70;;;6.10;81.20;;;;;;4734727;30;20071;-89
2024/01/14 07:41:20;;;;;;;16.50;11.15;;;6.00;80.40;;;;;;4742426;30;20085;-89
2024/01/14 07:43:45;;;;;;;17.58;10.60;;;6.00;80.50;;;;;;4743281;30;20067;-89
2024/01/14 07:46:11;;;;;;;16.58;10.95;;;6.00;80.50;;;;;;4721399;30;20041;-89
2024/01/14 07:48:38;;;;;;;16.33;10.18;;;6.00;80.50;;;;;;4736439;30;20121;-90
2024/01/14 07:51:04;;;;;;;17.70;11.65;;;6.00;80.50;;;;;;4733023;30;20119;-89
2024/01/14 07:53:30;;;;;;;16.95;10.90;;;6.00;80.50;;;;;;4737703;30;20043;-89
2024/01/14 07:55:55;;;;;;;17.05;11.07;;;6.00;80.60;;;;;;4736739;30;20321;-90
2024/01/14 07:58:21;;;;;;;16.52;10.73;;;6.00;80.50;;;;;;4719973;30;20031;-92
2024/01/14 08:00:47;;;;;;;15.77;10.48;;;6.00;80.60;;;;;;4720437;30;20025;-88
2024/01/14 08:03:14;;;;;;;16.80;11.13;;;6.00;80.60;;;;;;4737123;30;20039;-90
2024/01/14 08:05:39;;;;;;;15.88;10.38;;;5.90;80.60;;;;;;4745135;30;20033;-92
2024/01/14 08:08:06;;;;;;;16.83;10.20;;;6.00;80.60;;;;;;4716950;30;20047;-91
2024/01/14 08:10:35;;;;;;;18.23;12.27;;;6.00;80.70;;;;;;4735806;30;20041;-93
2024/01/14 08:13:01;;;;;;;19.98;11.88;;;6.00;80.60;;;;;;4753371;30;20097;-92
2024/01/14 08:15:27;;;;;;;16.42;10.52;;;6.00;80.60;;;;;;4735046;30;20123;-91
2024/01/14 08:17:53;;;;;;;16.83;11.10;;;6.00;80.60;;;;;;4735270;30;20675;-91
2024/01/14 08:20:19;;;;;;;18.25;10.52;;;5.90;80.60;;;;;;4718316;30;20341;-90
2024/01/14 08:22:45;;;;;;;16.70;11.00;;;5.90;80.60;;;;;;4721557;30;20036;-92
2024/01/14 08:25:11;;;;;;;16.98;10.82;;;6.00;80.60;;;;;;4727495;30;20035;-91
2024/01/14 08:27:38;;;;;;;16.10;11.35;;;6.00;80.60;;;;;;4732661;30;20490;-93
2024/01/14 08:30:07;;;;;;;17.20;11.27;;;5.90;80.60;;;;;;4730475;30;20087;-92
2024/01/14 08:32:33;;;;;;;18.65;11.57;;;5.90;80.60;;;;;;4740419;30;20035;-95
2024/01/14 08:34:59;;;;;;;17.40;11.45;;;5.90;80.60;;;;;;4732670;30;20234;-92
2024/01/14 08:37:28;;;;;;;16.95;10.93;;;5.90;80.60;;;;;;4732962;30;20067;-93
2024/01/14 08:39:54;;;;;;;16.95;11.15;;;5.90;80.60;;;;;;4719333;30;20039;-91
2024/01/14 08:42:20;;;;;;;18.08;11.48;;;5.90;80.70;;;;;;4747389;30;20040;-92
2024/01/14 08:44:47;;;;;;;17.25;11.23;;;5.90;80.70;;;;;;4734210;30;20032;-86
2024/01/14 08:47:13;;;;;;;16.52;10.88;;;5.90;80.70;;;;;;4707547;30;20037;-91
2024/01/14 08:49:42;;;;;;;17.05;11.45;;;5.90;80.70;;;;;;4733780;30;20119;-93
2024/01/14 08:52:08;;;;;;;15.57;10.55;;;5.90;80.70;;;;;;4732162;30;20040;-91
2024/01/14 08:54:35;;;;;;;16.20;10.63;;;5.90;80.70;;;;;;4732722;30;20549;-88
2024/01/14 08:57:01;;;;;;;16.02;10.38;;;5.90;80.70;;;;;;4722750;30;20044;-90
2024/01/14 08:59:26;;;;;;;18.67;11.65;;;5.90;80.70;;;;;;4731106;30;20041;-88
2024/01/14 09:01:52;;;;;;;17.27;12.05;;;5.90;80.70;;;;;;4720461;30;20051;-91
2024/01/14 09:04:19;;;;;;;17.73;11.65;;;5.90;80.70;;;;;;4735802;30;20023;-87
2024/01/14 09:06:45;;;;;;;17.10;11.05;;;5.90;80.80;;;;;;4731052;30;20105;-91
2024/01/14 09:09:11;;;;;;;17.80;12.05;;;5.90;80.70;;;;;;4722323;30;20036;-91
2024/01/14 09:11:38;;;;;;;17.73;11.82;;;5.90;80.70;;;;;;4721963;30;20028;-91
2024/01/14 09:14:04;;;;;;;16.45;12.00;;;5.90;80.70;;;;;;4721157;30;20064;-94
2024/01/14 09:16:30;;;;;;;18.33;11.50;;;5.90;80.80;;;;;;4721678;30;20118;-91
2024/01/14 09:18:56;;;;;;;17.58;11.43;;;5.90;80.80;;;;;;4720307;30;20028;-91
2024/01/14 09:21:22;;;;;;;17.10;11.07;;;5.90;80.80;;;;;;4719294;30;20032;-92
2024/01/14 09:23:48;;;;;;;18.27;12.23;;;5.90;80.80;;;;;;4732508;30;20118;-92
2024/01/14 09:26:14;;;;;;;16.83;11.73;;;5.90;80.80;;;;;;4748380;30;20029;-91
2024/01/14 09:28:39;;;;;;;18.38;12.07;;;5.90;80.70;;;;;;4733682;30;20036;-94
2024/01/14 09:31:05;;;;;;;18.10;12.25;;;5.90;80.70;;;;;;4733294;30;20100;-88
2024/01/14 09:33:32;;;;;;;15.27;10.68;;;5.80;80.70;;;;;;4748482;30;20059;-86
2024/01/14 09:36:06;;;;;;;17.25;11.43;;;5.90;80.80;;;;;;4730319;30;20093;-90
2024/01/14 09:38:32;;;;;;;15.43;11.50;;;5.90;80.80;;;;;;4738303;30;20040;-95
2024/01/14 09:41:09;;;;;;;17.48;12.00;;;5.90;80.80;;;;;;4736622;30;20040;-91
2024/01/14 09:43:41;;;;;;;16.58;10.98;;;5.90;80.90;;;;;;4722754;30;20510;-85
2024/01/14 09:46:06;;;;;;;17.48;11.18;;;5.90;80.80;;;;;;4718689;30;20025;-85
2024/01/14 09:48:33;;;;;;;16.08;10.75;;;5.90;80.80;;;;;;4732398;30;20498;-94
2024/01/14 09:51:03;;;;;;;16.55;11.18;;;5.90;80.80;;;;;;4751034;30;20088;-93
2024/01/14 09:53:29;;;;;;;16.67;11.00;;;5.80;80.70;;;;;;4740051;30;20036;-95
2024/01/14 09:55:58;;;;;;;15.70;11.00;;;5.90;80.80;;;;;;4749588;30;20124;-93
2024/01/14 09:58:24;;;;;;;15.23;10.18;;;5.90;80.90;;;;;;4758964;30;20075;-89
2024/01/14 10:00:50;;;;;;;15.55;10.88;;;5.80;80.80;;;;;;4727000;30;20032;-89
2024/01/14 10:03:17;;;;;;;17.50;11.18;;;5.90;80.90;;;;;;4733360;30;20052;-90
2024/01/14 10:05:44;;;;;;;16.50;11.30;;;5.90;80.90;;;;;;4723046;30;20039;-89
2024/01/14 10:08:09;;;;;;;18.65;11.02;;;5.90;80.90;;;;;;4734162;30;20040;-95
2024/01/14 10:10:36;;;;;;;15.63;11.00;;;5.90;81.50;;;;;;4735325;30;20032;-92
2024/01/14 10:13:03;;;;;;;16.88;11.00;;;5.90;80.90;;;;;;4714509;30;20490;-85
2024/01/14 10:15:32;;;;;;;18.35;11.50;;;5.90;80.90;;;;;;4732434;30;20040;-90
2024/01/14 10:17:58;;;;;;;17.02;11.13;;;5.90;80.90;;;;;;4720444;30;20036;-91
2024/01/14 10:20:23;;;;;;;16.17;10.65;;;5.90;80.90;;;;;;4734242;30;20035;-93
2024/01/14 10:22:50;;;;;;;17.10;11.60;;;5.90;80.90;;;;;;4721368;30;20098;-93
2024/01/14 10:25:16;;;;;;;16.80;10.57;;;5.90;80.90;;;;;;4732126;30;20105;-94
2024/01/14 10:27:42;;;;;;;15.73;10.48;;;5.90;80.90;;;;;;4731959;30;20119;-90
2024/01/14 10:30:10;;;;;;;17.08;10.65;;;5.90;80.90;;;;;;4734936;30;20112;-91
2024/01/14 10:32:36;;;;;;;17.05;11.60;;;5.90;80.90;;;;;;4734170;30;20040;-91
2024/01/14 10:35:10;;;;;;;18.08;12.00;;;5.90;80.90;;;;;;4728203;30;20524;-92
2024/01/14 10:37:37;;;;;;;17.48;11.85;;;5.90;80.90;;;;;;4733106;30;20135;-92
2024/01/14 10:40:06;;;;;;;16.73;10.82;;;5.90;80.90;;;;;;4721173;30;20552;-91
2024/01/14 10:42:32;;;;;;;17.77;12.10;;;5.90;80.90;;;;;;4723916;30;20055;-88
2024/01/14 10:44:58;;;;;;;17.52;11.13;;;5.90;80.90;;;;;;4748093;30;20040;-88
2024/01/14 10:47:26;;;;;;;19.10;12.35;;;5.90;80.90;;;;;;4734815;30;20096;-87
2024/01/14 10:49:52;;;;;;;17.65;12.07;;;5.90;80.90;;;;;;4727647;30;20020;-89
2024/01/14 10:52:23;;;;;;;17.33;11.60;;;5.90;80.90;;;;;;4732895;30;20036;-88
2024/01/14 10:54:56;;;;;;;17.55;11.88;;;5.90;80.90;;;;;;4747941;30;20032;-87
2024/01/14 10:57:35;;;;;;;18.88;12.30;;;5.90;81.00;;;;;;4732548;30;20122;-89
2024/01/14 11:00:08;;;;;;;17.75;11.50;;;5.90;81.00;;;;;;4736236;30;20044;-90
2024/01/14 11:02:35;;;;;;;18.42;12.02;;;5.90;80.90;;;;;;4722030;30;20044;-89
2024/01/14 11:05:03;;;;;;;17.45;11.38;;;5.90;80.90;;;;;;4733733;30;20041;-94
2024/01/14 11:07:32;;;;;;;17.15;11.52;;;5.90;81.00;;;;;;4724101;30;20032;-93
2024/01/14 11:09:58;;;;;;;17.63;11.57;;;5.90;80.90;;;;;;4732738;30;20036;-91
2024/01/14 11:12:29;;;;;;;17.80;11.55;;;5.90;81.00;;;;;;4735429;30;20125;-91
2024/01/14 11:15:10;;;;;;;17.65;11.43;;;6.00;81.00;;;;;;4746325;30;20040;-90
2024/01/14 11:18:09;;;;;;;18.08;11.55;;;6.00;81.00;;;;;;4711799;30;20041;-90
2024/01/14 11:20:40;;;;;;;18.45;12.00;;;5.90;81.00;;;;;;4732219;30;20028;-93
2024/01/14 11:23:06;;;;;;;17.00;10.18;;;5.90;80.90;;;;;;4725354;30;20044;-91
2024/01/14 11:25:34;;;;;;;17.17;11.43;;;5.90;80.90;;;;;;4736996;30;20063;-94
2024/01/14 11:28:06;;;;;;;19.60;12.07;;;5.90;81.00;;;;;;4734822;30;20040;-92
2024/01/14 11:30:48;;;;;;;16.88;10.93;;;6.00;81.00;;;;;;4726544;30;20032;-91
2024/01/14 11:33:31;;;;;;;16.58;11.13;;;6.00;81.00;;;;;;4730280;30;20093;-93
2024/01/14 11:35:57;;;;;;;17.48;11.13;;;6.00;81.00;;;;;;4735418;30;20036;-92
2024/01/14 11:38:37;;;;;;;17.52;10.98;;;6.00;81.00;;;;;;4720898;30;20114;-92
2024/01/14 11:41:24;;;;;;;16.27;11.32;;;6.00;81.10;;;;;;4737207;30;20032;-89
2024/01/14 11:44:10;;;;;;;15.40;10.45;;;6.00;81.10;;;;;;4719438;30;20039;-92
2024/01/14 11:46:38;;;;;;;16.70;10.90;;;6.00;81.10;;;;;;4734393;30;20105;-89
2024/01/14 11:49:08;;;;;;;15.93;10.30;;;6.00;81.00;;;;;;4736857;30;20020;-93
2024/01/14 11:51:37;;;;;;;16.02;10.40;;;6.00;81.00;;;;;;4727546;30;20125;-87
2024/01/14 11:54:09;;;;;;;19.35;11.68;;;5.90;81.00;;;;;;4732962;30;20036;-88
2024/01/14 11:56:36;;;;;;;16.25;10.93;;;6.00;81.10;;;;;;4721291;30;20036;-83
2024/01/14 11:59:07;;;;;;;16.15;10.93;;;6.00;81.00;;;;;;4717798;30;20050;-84
2024/01/14 12:01:33;;;;;;;16.92;11.05;;;6.00;81.00;;;;;;4737564;30;20047;-91
2024/01/14 12:04:05;;;;;;;17.70;11.18;;;6.00;81.00;;;;;;4741012;30;20028;-91
2024/01/14 12:06:39;;;;;;;17.85;11.10;;;6.00;81.00;;;;;;4738852;30;20075;-91
2024/01/14 12:09:06;;;;;;;17.33;10.85;;;6.00;81.00;;;;;;4720282;30;20028;-92
2024/01/14 12:11:33;;;;;;;16.42;10.50;;;6.00;81.00;;;;;;4729816;30;20070;-91
2024/01/14 12:13:59;;;;;;;16.92;10.95;;;6.00;81.00;;;;;;4727605;30;20032;-90
2024/01/14 12:16:24;;;;;;;17.92;10.55;;;6.00;81.00;;;;;;4746337;30;20504;-94
2024/01/14 12:18:50;;;;;;;17.75;10.88;;;6.00;81.00;;;;;;4747317;30;20044;-86
2024/01/14 12:21:17;;;;;;;17.02;11.05;;;6.00;81.00;;;;;;4730054;30;20092;-86
2024/01/14 12:23:44;;;;;;;15.20;10.05;;;6.00;81.00;;;;;;4722257;30;20043;-87
2024/01/14 12:26:10;;;;;;;15.82;10.40;;;6.00;81.00;;;;;;4726239;30;20034;-86
2024/01/14 12:28:38;;;;;;;15.30;9.90;;;6.00;81.00;;;;;;4725550;30;20136;-89
2024/01/14 12:31:07;;;;;;;15.35;10.27;;;6.00;81.60;;;;;;4727805;30;20028;-88
2024/01/14 12:33:33;;;;;;;16.33;9.90;;;6.00;81.00;;;;;;4728511;30;20059;-86
2024/01/14 12:36:00;;;;;;;16.50;10.05;;;6.00;81.00;;;;;;4735751;30;20060;-87
2024/01/14 12:38:25;;;;;;;15.70;10.45;;;6.00;81.00;;;;;;4709076;30;20458;-87
2024/01/14 12:40:52;;;;;;;15.02;10.23;;;6.00;81.00;;;;;;4739774;30;20459;-91